createdAt,value
2023-04-17T00:01:00.347Z,7.28
2023-04-17T00:03:26.791Z,7.28
2023-04-17T00:05:53.302Z,7.28
2023-04-17T00:08:19.572Z,7.28
2023-04-17T00:10:51.257Z,7.27
2023-04-17T00:13:26.770Z,7.28
2023-04-17T00:15:52.998Z,7.28
2023-04-17T00:18:19.249Z,7.29
2023-04-17T00:20:45.506Z,7.27
2023-04-17T00:23:11.756Z,7.26
2023-04-17T00:25:38.000Z,7.25
2023-04-17T00:28:04.329Z,7.24
2023-04-17T00:30:30.623Z,7.22
2023-04-17T00:32:56.897Z,7.20
2023-04-17T00:35:23.199Z,7.20
2023-04-17T00:37:49.549Z,7.18
2023-04-17T00:40:15.862Z,7.16
2023-04-17T00:42:42.196Z,7.13
2023-04-17T00:45:08.717Z,7.08
2023-04-17T00:47:35.034Z,7.02
2023-04-17T00:50:02.232Z,6.98
2023-04-17T00:52:29.041Z,6.93
2023-04-17T00:54:56.522Z,6.88
2023-04-17T00:57:23.686Z,6.85
2023-04-17T00:59:50.089Z,6.83
2023-04-17T01:02:17.501Z,6.83
2023-04-17T01:04:43.929Z,6.82
2023-04-17T01:07:10.580Z,6.82
2023-04-17T01:09:37.756Z,6.81
2023-04-17T01:12:17.275Z,6.80
2023-04-17T01:14:43.540Z,6.78
2023-04-17T01:17:10.012Z,6.76
2023-04-17T01:19:36.410Z,6.75
2023-04-17T01:22:02.698Z,6.74
2023-04-17T01:24:29.126Z,6.73
2023-04-17T01:26:55.554Z,6.73
2023-04-17T01:29:22.799Z,6.76
2023-04-17T01:31:49.744Z,6.79
2023-04-17T01:34:15.964Z,6.83
2023-04-17T01:36:42.249Z,6.86
2023-04-17T01:39:08.553Z,6.90
2023-04-17T01:41:34.851Z,6.93
2023-04-17T01:44:01.132Z,6.93
2023-04-17T01:46:28.966Z,6.95
2023-04-17T01:48:55.958Z,6.94
2023-04-17T01:51:22.186Z,6.93
2023-04-17T01:53:48.674Z,6.90
2023-04-17T01:56:14.971Z,6.85
2023-04-17T01:58:41.578Z,6.79
2023-04-17T02:01:07.901Z,6.74
2023-04-17T02:03:34.458Z,6.70
2023-04-17T02:06:00.893Z,6.65
2023-04-17T02:08:27.150Z,6.59
2023-04-17T02:10:53.462Z,6.55
2023-04-17T02:13:20.300Z,6.50
2023-04-17T02:15:46.825Z,6.47
2023-04-17T02:18:13.156Z,6.45
2023-04-17T02:20:39.493Z,6.41
2023-04-17T02:23:06.247Z,6.39
2023-04-17T02:25:32.854Z,6.37
2023-04-17T02:27:59.268Z,6.35
2023-04-17T02:30:27.223Z,6.32
2023-04-17T02:32:55.512Z,6.31
2023-04-17T02:35:23.595Z,6.27
2023-04-17T02:37:49.926Z,6.25
2023-04-17T02:40:16.182Z,6.23
2023-04-17T02:42:42.628Z,6.22
2023-04-17T02:45:09.393Z,6.21
2023-04-17T02:47:35.866Z,6.19
2023-04-17T02:50:03.152Z,6.19
2023-04-17T02:52:34.086Z,6.19
2023-04-17T02:55:00.758Z,6.18
2023-04-17T02:57:27.547Z,6.16
2023-04-17T02:59:53.950Z,6.14
2023-04-17T03:02:20.390Z,6.13
2023-04-17T03:04:47.557Z,6.13
2023-04-17T03:07:14.692Z,6.13
2023-04-17T03:09:40.968Z,6.12
2023-04-17T03:12:07.287Z,6.11
2023-04-17T03:14:33.607Z,6.10
2023-04-17T03:16:59.997Z,6.08
2023-04-17T03:19:26.265Z,6.07
2023-04-17T03:21:52.585Z,6.07
2023-04-17T03:24:18.805Z,6.06
2023-04-17T03:26:45.168Z,6.05
2023-04-17T03:29:15.441Z,6.06
2023-04-17T03:31:41.874Z,6.05
2023-04-17T03:34:08.202Z,6.05
2023-04-17T03:36:34.839Z,6.06
2023-04-17T03:39:04.302Z,6.05
2023-04-17T03:41:31.116Z,6.07
2023-04-17T03:43:57.609Z,6.09
2023-04-17T03:46:23.983Z,6.14
2023-04-17T03:48:50.520Z,6.18
2023-04-17T03:51:17.196Z,6.22
2023-04-17T03:53:43.544Z,6.28
2023-04-17T03:56:10.971Z,6.35
2023-04-17T03:58:40.354Z,6.41
2023-04-17T04:01:07.763Z,6.46
2023-04-17T04:03:34.663Z,6.51
2023-04-17T04:06:01.134Z,6.57
2023-04-17T04:08:27.978Z,6.63
2023-04-17T04:10:54.543Z,6.68
2023-04-17T04:13:33.355Z,6.73
2023-04-17T04:16:00.869Z,6.78
2023-04-17T04:18:28.870Z,6.84
2023-04-17T04:20:55.168Z,6.91
2023-04-17T04:23:30.658Z,6.96
2023-04-17T04:25:57.275Z,7.02
2023-04-17T04:28:28.076Z,7.05
2023-04-17T04:30:54.496Z,7.10
2023-04-17T04:33:24.319Z,7.13
2023-04-17T04:35:51.219Z,7.14
2023-04-17T04:38:17.609Z,7.18
2023-04-17T04:40:45.190Z,7.22
2023-04-17T04:43:11.566Z,7.27
2023-04-17T04:45:41.371Z,7.32
2023-04-17T04:48:07.667Z,7.38
2023-04-17T04:50:34.260Z,7.45
2023-04-17T04:53:00.915Z,7.52
2023-04-17T04:55:39.969Z,7.59
2023-04-17T04:58:06.308Z,7.65
2023-04-17T05:00:33.279Z,7.75
2023-04-17T05:03:00.556Z,7.87
2023-04-17T05:05:27.945Z,7.98
2023-04-17T05:07:54.733Z,8.08
2023-04-17T05:10:22.225Z,8.22
2023-04-17T05:12:51.792Z,8.35
2023-04-17T05:15:18.453Z,8.45
2023-04-17T05:17:44.973Z,8.54
2023-04-17T05:20:12.561Z,8.63
2023-04-17T05:22:45.679Z,8.70
2023-04-17T05:25:12.607Z,8.78
2023-04-17T05:27:38.945Z,8.89
2023-04-17T05:30:05.727Z,9.01
2023-04-17T05:32:32.545Z,9.18
2023-04-17T05:35:05.574Z,9.36
2023-04-17T05:37:32.210Z,9.61
2023-04-17T05:39:58.641Z,9.95
2023-04-17T05:42:25.027Z,10.31
2023-04-17T05:44:51.824Z,10.65
2023-04-17T05:47:18.196Z,10.99
2023-04-17T05:49:44.508Z,11.28
2023-04-17T05:52:10.887Z,11.49
2023-04-17T05:54:40.055Z,11.62
2023-04-17T05:57:07.678Z,11.62
2023-04-17T05:59:34.612Z,11.51
2023-04-17T06:02:01.102Z,11.39
2023-04-17T06:04:28.213Z,11.32
2023-04-17T06:06:55.526Z,11.32
2023-04-17T06:09:23.023Z,11.35
2023-04-17T06:11:50.944Z,11.43
2023-04-17T06:14:17.355Z,11.56
2023-04-17T06:16:43.974Z,11.74
2023-04-17T06:19:10.751Z,12.00
2023-04-17T06:21:37.821Z,12.29
2023-04-17T06:24:04.262Z,12.48
2023-04-17T06:26:31.202Z,12.66
2023-04-17T06:28:58.211Z,12.84
2023-04-17T06:31:24.738Z,12.99
2023-04-17T06:33:51.170Z,13.05
2023-04-17T06:36:19.301Z,12.98
2023-04-17T06:38:48.259Z,12.78
2023-04-17T06:41:16.136Z,12.49
2023-04-17T06:43:42.641Z,12.22
2023-04-17T06:46:13.372Z,12.02
2023-04-17T06:48:39.806Z,11.91
2023-04-17T06:51:06.668Z,11.81
2023-04-17T06:53:33.022Z,11.78
2023-04-17T06:55:59.521Z,11.92
2023-04-17T06:58:25.901Z,12.08
2023-04-17T07:00:55.338Z,12.40
2023-04-17T07:03:25.127Z,12.83
2023-04-17T07:05:51.587Z,13.25
2023-04-17T07:08:17.914Z,13.57
2023-04-17T07:10:44.354Z,13.85
2023-04-17T07:13:10.712Z,14.17
2023-04-17T07:15:37.280Z,14.49
2023-04-17T07:18:03.782Z,14.66
2023-04-17T07:20:30.318Z,14.71
2023-04-17T07:22:56.722Z,14.67
2023-04-17T07:25:23.088Z,14.65
2023-04-17T07:27:49.511Z,14.68
2023-04-17T07:30:15.841Z,14.70
2023-04-17T07:32:42.233Z,14.74
2023-04-17T07:35:08.672Z,14.78
2023-04-17T07:37:35.055Z,14.82
2023-04-17T07:40:01.440Z,14.98
2023-04-17T07:42:28.045Z,15.26
2023-04-17T07:44:55.234Z,15.45
2023-04-17T07:47:21.676Z,15.37
2023-04-17T07:49:48.249Z,15.18
2023-04-17T07:52:14.734Z,15.07
2023-04-17T07:54:41.139Z,14.99
2023-04-17T07:57:07.505Z,14.94
2023-04-17T07:59:33.916Z,14.89
2023-04-17T08:02:00.410Z,14.87
2023-04-17T08:04:27.132Z,14.85
2023-04-17T08:06:53.785Z,14.79
2023-04-17T08:09:20.624Z,14.66
2023-04-17T08:11:56.381Z,14.60
2023-04-17T08:14:24.196Z,14.57
2023-04-17T08:16:50.510Z,14.61
2023-04-17T08:19:16.913Z,14.61
2023-04-17T08:21:43.494Z,14.60
2023-04-17T08:24:09.883Z,14.69
2023-04-17T08:26:36.220Z,14.81
2023-04-17T08:29:02.645Z,14.92
2023-04-17T08:31:29.209Z,15.07
2023-04-17T08:34:06.250Z,15.05
2023-04-17T08:36:39.855Z,15.10
2023-04-17T08:39:06.178Z,15.31
2023-04-17T08:41:38.783Z,15.60
2023-04-17T08:44:05.205Z,16.01
2023-04-17T08:46:31.614Z,16.43
2023-04-17T08:48:58.055Z,16.80
2023-04-17T08:51:25.188Z,17.09
2023-04-17T08:53:51.584Z,17.06
2023-04-17T08:56:17.851Z,17.17
2023-04-17T08:58:44.388Z,17.26
2023-04-17T09:01:11.423Z,17.19
2023-04-17T09:58:12.959Z,17.36
2023-04-17T10:00:40.667Z,17.58
2023-04-17T10:03:07.774Z,17.54
2023-04-17T10:05:34.749Z,17.49
2023-04-17T10:08:02.109Z,17.40
2023-04-17T10:10:29.838Z,17.35
2023-04-17T10:12:57.526Z,17.31
2023-04-17T10:15:24.671Z,17.27
2023-04-17T10:17:51.540Z,17.28
2023-04-17T10:20:17.969Z,17.28
2023-04-17T10:22:44.363Z,17.24
2023-04-17T10:25:10.942Z,17.33
2023-04-17T10:27:37.413Z,17.50
2023-04-17T10:30:04.885Z,17.65
2023-04-17T10:32:31.667Z,17.72
2023-04-17T10:35:02.163Z,17.56
2023-04-17T10:37:46.835Z,17.21
2023-04-17T10:40:23.789Z,16.70
2023-04-17T10:43:03.058Z,16.18
2023-04-17T10:45:48.191Z,15.72
2023-04-17T10:48:19.204Z,15.29
2023-04-17T10:50:45.643Z,14.94
2023-04-17T10:53:30.966Z,14.64
2023-04-17T10:55:57.396Z,14.32
2023-04-17T10:58:23.670Z,14.05
2023-04-17T11:01:02.160Z,13.86
2023-04-17T11:03:29.224Z,13.74
2023-04-17T11:05:58.244Z,13.66
2023-04-17T11:08:24.654Z,13.65
2023-04-17T11:10:56.967Z,13.65
2023-04-17T11:13:25.451Z,13.69
2023-04-17T11:15:51.958Z,13.71
2023-04-17T11:18:20.290Z,13.71
2023-04-17T11:20:46.579Z,13.74
2023-04-17T11:23:13.105Z,13.69
2023-04-17T11:25:39.457Z,13.65
2023-04-17T11:28:06.345Z,13.67
2023-04-17T11:30:34.480Z,13.76
2023-04-17T11:33:02.143Z,13.91
2023-04-17T11:35:32.924Z,13.99
2023-04-17T11:38:10.501Z,14.04
2023-04-17T11:40:52.006Z,13.99
2023-04-17T11:43:20.239Z,13.83
2023-04-17T11:45:47.838Z,13.63
2023-04-17T11:48:14.688Z,13.43
2023-04-17T11:50:42.510Z,13.23
2023-04-17T11:53:11.619Z,13.04
2023-04-17T11:55:38.269Z,12.84
2023-04-17T11:58:05.839Z,12.75
2023-04-17T12:00:32.956Z,12.67
2023-04-17T12:03:00.799Z,12.64
2023-04-17T12:05:28.487Z,12.62
2023-04-17T12:07:58.718Z,12.64
2023-04-17T12:10:35.010Z,12.69
2023-04-17T12:13:01.329Z,12.77
2023-04-17T12:15:27.614Z,12.88
2023-04-17T12:17:53.952Z,13.06
2023-04-17T12:20:20.247Z,13.31
2023-04-17T12:22:46.526Z,13.55
2023-04-17T12:25:12.908Z,13.73
2023-04-17T12:27:39.348Z,13.79
2023-04-17T12:30:05.938Z,13.84
2023-04-17T12:32:32.373Z,13.93
2023-04-17T12:34:58.713Z,14.04
2023-04-17T12:37:25.216Z,14.10
2023-04-17T12:39:51.634Z,14.10
2023-04-17T12:42:17.975Z,14.03
2023-04-17T12:44:44.296Z,13.90
2023-04-17T12:47:10.588Z,13.76
2023-04-17T12:49:37.005Z,13.64
2023-04-17T12:52:04.043Z,13.55
2023-04-17T12:54:30.604Z,13.53
2023-04-17T12:56:57.315Z,13.50
2023-04-17T12:59:23.731Z,13.47
2023-04-17T13:01:50.247Z,13.48
2023-04-17T13:04:17.083Z,13.49
2023-04-17T13:06:43.713Z,13.47
2023-04-17T13:09:10.380Z,13.47
2023-04-17T13:11:37.408Z,13.49
2023-04-17T13:14:03.888Z,13.53
2023-04-17T13:16:30.389Z,13.50
2023-04-17T13:18:56.724Z,13.40
2023-04-17T13:21:23.120Z,13.34
2023-04-17T13:23:49.507Z,13.38
2023-04-17T13:26:15.986Z,13.49
2023-04-17T13:28:42.409Z,13.57
2023-04-17T13:31:08.825Z,13.69
2023-04-17T13:33:35.148Z,13.79
2023-04-17T13:36:01.460Z,13.84
2023-04-17T13:38:28.087Z,13.88
2023-04-17T13:40:54.446Z,13.88
2023-04-17T13:43:20.870Z,13.91
2023-04-17T13:45:47.505Z,13.99
2023-04-17T13:48:14.053Z,14.01
2023-04-17T13:50:40.836Z,14.01
2023-04-17T13:53:08.529Z,14.06
2023-04-17T13:55:36.586Z,14.11
2023-04-17T13:58:03.061Z,14.13
2023-04-17T14:00:29.570Z,14.12
2023-04-17T14:02:56.133Z,14.05
2023-04-17T14:05:22.523Z,14.04
2023-04-17T14:07:48.857Z,13.99
2023-04-17T14:10:15.228Z,13.90
2023-04-17T14:12:41.517Z,13.78
2023-04-17T14:15:08.204Z,13.68
2023-04-17T14:17:35.518Z,13.63
2023-04-17T14:20:01.939Z,13.58
2023-04-17T14:22:28.548Z,13.53
2023-04-17T14:24:55.112Z,13.40
2023-04-17T14:27:21.350Z,13.28
2023-04-17T14:29:47.621Z,13.16
2023-04-17T14:32:13.930Z,13.08
2023-04-17T14:34:40.221Z,13.02
2023-04-17T14:37:06.953Z,12.94
2023-04-17T14:39:33.266Z,12.85
2023-04-17T14:42:01.351Z,12.75
2023-04-17T14:44:28.689Z,12.66
2023-04-17T14:46:55.024Z,12.60
2023-04-17T14:49:21.509Z,12.55
2023-04-17T14:51:48.106Z,12.49
2023-04-17T14:54:15.640Z,12.42
2023-04-17T14:56:42.446Z,12.32
2023-04-17T14:59:08.996Z,12.21
2023-04-17T15:01:35.369Z,12.10
2023-04-17T15:04:01.909Z,12.03
2023-04-17T15:06:28.762Z,11.97
2023-04-17T15:08:55.514Z,11.92
2023-04-17T15:11:22.114Z,11.88
2023-04-17T15:13:48.869Z,11.85
2023-04-17T15:16:15.232Z,11.83
2023-04-17T15:18:41.687Z,11.81
2023-04-17T15:21:07.986Z,11.82
2023-04-17T15:23:34.272Z,11.84
2023-04-17T15:26:00.759Z,11.89
2023-04-17T15:28:27.418Z,11.91
2023-04-17T15:30:54.640Z,11.94
2023-04-17T15:33:21.028Z,11.95
2023-04-17T15:35:52.700Z,11.95
2023-04-17T15:38:18.958Z,11.91
2023-04-17T15:40:45.292Z,11.88
2023-04-17T15:43:11.751Z,11.88
2023-04-17T15:45:38.179Z,11.91
2023-04-17T15:48:04.629Z,11.90
2023-04-17T15:50:31.029Z,11.92
2023-04-17T15:52:57.371Z,11.92
2023-04-17T15:55:23.724Z,11.88
2023-04-17T15:57:50.221Z,11.83
2023-04-17T16:00:17.082Z,11.78
2023-04-17T16:02:43.664Z,11.75
2023-04-17T16:05:10.779Z,11.72
2023-04-17T16:07:37.086Z,11.67
2023-04-17T16:10:03.734Z,11.62
2023-04-17T16:12:30.069Z,11.61
2023-04-17T16:14:56.340Z,11.60
2023-04-17T16:17:22.864Z,11.60
2023-04-17T16:19:50.752Z,11.58
2023-04-17T16:22:17.835Z,11.56
2023-04-17T16:24:44.397Z,11.56
2023-04-17T16:27:10.769Z,11.52
2023-04-17T16:29:37.091Z,11.46
2023-04-17T16:32:03.545Z,11.37
2023-04-17T16:34:29.879Z,11.30
2023-04-17T16:36:56.212Z,11.24
2023-04-17T16:39:22.518Z,11.20
2023-04-17T16:41:48.933Z,11.14
2023-04-17T16:44:15.405Z,11.10
2023-04-17T16:46:59.246Z,11.04
2023-04-17T16:49:28.655Z,10.98
2023-04-17T16:51:55.084Z,10.93
2023-04-17T16:54:21.691Z,10.89
2023-04-17T16:56:48.730Z,10.86
2023-04-17T16:59:15.299Z,10.83
2023-04-17T17:01:41.719Z,10.80
2023-04-17T17:04:08.458Z,10.76
2023-04-17T17:06:35.045Z,10.72
2023-04-17T17:09:01.392Z,10.69
2023-04-17T17:11:27.969Z,10.67
2023-04-17T17:13:54.478Z,10.66
2023-04-17T17:16:21.026Z,10.64
2023-04-17T17:18:48.269Z,10.62
2023-04-17T17:21:14.730Z,10.60
2023-04-17T17:23:41.363Z,10.57
2023-04-17T17:26:08.183Z,10.56
2023-04-17T17:28:34.589Z,10.54
2023-04-17T17:31:01.713Z,10.51
2023-04-17T17:33:28.957Z,10.50
2023-04-17T17:35:55.811Z,10.49
2023-04-17T17:38:22.712Z,10.47
2023-04-17T17:40:51.778Z,10.46
2023-04-17T17:43:18.437Z,10.45
2023-04-17T17:45:45.430Z,10.43
2023-04-17T17:48:11.895Z,10.41
2023-04-17T17:50:39.543Z,10.38
2023-04-17T17:53:06.133Z,10.35
2023-04-17T17:55:32.545Z,10.31
2023-04-17T17:57:58.925Z,10.29
2023-04-17T18:00:25.358Z,10.26
2023-04-17T18:02:51.987Z,10.23
2023-04-17T18:05:18.654Z,10.20
2023-04-17T18:07:45.396Z,10.17
2023-04-17T18:10:12.319Z,10.14
2023-04-17T18:12:39.065Z,10.12
2023-04-17T18:15:06.287Z,10.09
2023-04-17T18:17:32.712Z,10.07
2023-04-17T18:19:59.497Z,10.06
2023-04-17T18:22:26.119Z,10.05
2023-04-17T18:24:53.383Z,10.05
2023-04-17T18:27:20.143Z,10.04
2023-04-17T18:29:46.826Z,10.03
2023-04-17T18:32:13.591Z,10.02
2023-04-17T18:34:40.266Z,10.02
2023-04-17T18:37:06.791Z,10.01
2023-04-17T18:39:33.714Z,10.02
2023-04-17T18:42:00.209Z,10.02
2023-04-17T18:44:26.861Z,10.01
2023-04-17T18:46:53.686Z,10.01
2023-04-17T18:49:20.134Z,10.01
2023-04-17T18:51:48.524Z,10.00
2023-04-17T18:54:40.513Z,10.01
2023-04-17T18:57:10.008Z,9.99
2023-04-17T18:59:59.152Z,9.98
2023-04-17T19:02:27.745Z,9.97
2023-04-17T19:04:56.158Z,9.97
2023-04-17T19:07:22.997Z,9.97
2023-04-17T19:09:49.805Z,9.96
2023-04-17T19:12:44.570Z,9.96
2023-04-17T19:15:13.275Z,9.95
2023-04-17T19:17:39.761Z,9.95
2023-04-17T19:22:49.396Z,9.94
2023-04-17T19:25:16.259Z,9.93
2023-04-17T19:27:42.703Z,9.94
2023-04-17T19:30:09.611Z,9.93
2023-04-17T19:32:36.209Z,9.93
2023-04-17T19:35:06.309Z,9.92
2023-04-17T19:37:33.196Z,9.90
2023-04-17T19:40:08.479Z,9.90
2023-04-17T19:42:41.078Z,9.90
2023-04-17T19:45:08.210Z,9.89
2023-04-17T19:47:35.130Z,9.89
2023-04-17T19:50:01.688Z,9.88
2023-04-17T19:52:28.817Z,9.87
2023-04-17T19:54:55.556Z,9.87
2023-04-17T19:57:24.328Z,9.87
2023-04-17T19:59:50.910Z,9.86
2023-04-17T20:02:17.463Z,9.86
2023-04-17T20:04:44.230Z,9.85
2023-04-17T20:07:10.806Z,9.85
2023-04-17T20:09:41.713Z,9.84
2023-04-17T20:12:08.301Z,9.84
2023-04-17T20:14:34.966Z,9.83
2023-04-17T20:17:01.535Z,9.83
2023-04-17T20:19:27.893Z,9.81
2023-04-17T20:21:54.388Z,9.78
2023-04-17T20:24:20.723Z,9.77
2023-04-17T20:26:47.472Z,9.76
2023-04-17T20:29:14.023Z,9.74
2023-04-17T20:31:40.702Z,9.71
2023-04-17T20:34:07.199Z,9.70
2023-04-17T20:36:33.632Z,9.70
2023-04-17T20:39:00.017Z,9.68
2023-04-17T20:41:26.348Z,9.67
2023-04-17T20:43:59.261Z,9.66
2023-04-17T20:46:26.234Z,9.64
2023-04-17T20:48:52.804Z,9.62
2023-04-17T20:51:20.398Z,9.60
2023-04-17T20:53:46.682Z,9.58
2023-04-17T20:56:13.019Z,9.56
2023-04-17T20:58:39.299Z,9.55
2023-04-17T21:01:05.562Z,9.54
2023-04-17T21:03:32.066Z,9.54
2023-04-17T21:05:59.006Z,9.55
2023-04-17T21:08:25.462Z,9.55
2023-04-17T21:10:51.786Z,9.52
2023-04-17T21:13:18.088Z,9.51
2023-04-17T21:15:44.416Z,9.50
2023-04-17T21:18:10.805Z,9.48
2023-04-17T21:20:39.274Z,9.48
2023-04-17T21:23:05.611Z,9.47
2023-04-17T21:25:32.029Z,9.46
2023-04-17T21:27:58.421Z,9.44
2023-04-17T21:30:27.139Z,9.42
2023-04-17T21:32:53.791Z,9.40
2023-04-17T21:35:20.203Z,9.39
2023-04-17T21:37:46.504Z,9.39
2023-04-17T21:40:13.048Z,9.37
2023-04-17T21:42:39.373Z,9.36
2023-04-17T21:45:05.982Z,9.36
2023-04-17T21:47:32.683Z,9.34
2023-04-17T21:49:58.991Z,9.33
2023-04-17T21:52:25.298Z,9.32
2023-04-17T21:54:51.613Z,9.31
2023-04-17T21:57:17.936Z,9.29
2023-04-17T21:59:44.359Z,9.28
2023-04-17T22:02:10.766Z,9.28
2023-04-17T22:04:37.105Z,9.26
2023-04-17T22:07:03.522Z,9.25
2023-04-17T22:09:29.872Z,9.24
2023-04-17T22:11:56.274Z,9.22
2023-04-17T22:14:22.569Z,9.21
2023-04-17T22:16:48.929Z,9.20
2023-04-17T22:19:15.222Z,9.21
2023-04-17T22:21:41.507Z,9.22
2023-04-17T22:24:07.813Z,9.22
2023-04-17T22:26:34.159Z,9.23
2023-04-17T22:29:00.397Z,9.23
2023-04-17T22:31:26.817Z,9.23
2023-04-17T22:33:53.152Z,9.23
2023-04-17T22:36:19.398Z,9.24
2023-04-17T22:38:45.708Z,9.24
2023-04-17T22:41:12.008Z,9.23
2023-04-17T22:43:38.247Z,9.23
2023-04-17T22:46:05.035Z,9.23
2023-04-17T22:48:31.369Z,9.23
2023-04-17T22:50:57.610Z,9.23
2023-04-17T22:53:23.985Z,9.22
2023-04-17T22:56:03.038Z,9.22
2023-04-17T22:58:29.971Z,9.22
2023-04-17T23:00:56.253Z,9.22
2023-04-17T23:03:22.646Z,9.23
2023-04-17T23:05:48.923Z,9.23
2023-04-17T23:08:15.300Z,9.24
2023-04-17T23:10:41.735Z,9.23
2023-04-17T23:13:08.909Z,9.24
2023-04-17T23:15:35.627Z,9.24
2023-04-17T23:18:02.163Z,9.24
2023-04-17T23:20:28.478Z,9.23
2023-04-17T23:22:54.757Z,9.23
2023-04-17T23:25:21.133Z,9.23
2023-04-17T23:27:47.327Z,9.22
2023-04-17T23:30:13.759Z,9.21
2023-04-17T23:32:40.067Z,9.21
2023-04-17T23:35:06.730Z,9.21
2023-04-17T23:37:32.984Z,9.20
2023-04-17T23:39:59.323Z,9.20
2023-04-17T23:42:25.773Z,9.19
2023-04-17T23:44:52.893Z,9.18
2023-04-17T23:47:19.204Z,9.19
2023-04-17T23:49:45.494Z,9.19
2023-04-17T23:52:11.846Z,9.19
2023-04-17T23:54:38.131Z,9.18
2023-04-17T23:57:04.368Z,9.19
2023-04-17T23:59:30.656Z,9.19
